Time;durP1;ratioP1;P1;durP2;ratioP2;P2;SDS_P1;SDS_P2;PMS_P1;PMS_P2;Temp;Humidity;BMP_temperature;BMP_pressure;BME280_temperature;BME280_humidity;BME280_pressure;Samples;Min_cycle;Max_cycle;Signal;HPM_P1;HPM_P2
2021/12/01 00:00:02;;;;;;;19.38;4.85;;;;;;;;;;5128469;27;20058;-66
2021/12/01 00:02:29;;;;;;;12.30;3.90;;;;;;;;;;5128323;27;20052;-66
2021/12/01 00:04:56;;;;;;;15.82;4.45;;;;;;;;;;5128956;27;20143;-66
2021/12/01 00:07:22;;;;;;;15.15;5.25;;;;;;;;;;5128078;27;20054;-67
2021/12/01 00:09:49;;;;;;;18.33;6.40;;;;;;;;;;5128247;27;20048;-66
2021/12/01 00:12:15;;;;;;;24.75;8.88;;;;;;;;;;5128672;27;20052;-67
2021/12/01 00:14:41;;;;;;;27.38;9.45;;;;;;;;;;5128978;27;20087;-68
2021/12/01 00:17:11;;;;;;;28.40;10.57;;;;;;;;;;5127494;27;20144;-67
2021/12/01 00:19:37;;;;;;;28.58;11.13;;;;;;;;;;5128379;27;20155;-66
2021/12/01 00:22:04;;;;;;;23.13;9.77;;;;;;;;;;5128526;27;20583;-67
2021/12/01 00:24:30;;;;;;;46.15;14.43;;;;;;;;;;5128361;27;20138;-66
2021/12/01 00:26:57;;;;;;;33.05;13.70;;;;;;;;;;5127798;27;20131;-66
2021/12/01 00:29:23;;;;;;;39.95;15.15;;;;;;;;;;5128175;27;20516;-67
2021/12/01 00:31:49;;;;;;;32.78;13.20;;;;;;;;;;5128757;27;20070;-67
2021/12/01 00:34:16;;;;;;;33.53;14.25;;;;;;;;;;5127735;27;20617;-67
2021/12/01 00:36:42;;;;;;;37.92;15.07;;;;;;;;;;5128362;27;20132;-67
2021/12/01 00:39:08;;;;;;;36.65;14.57;;;;;;;;;;5128348;27;20059;-67
2021/12/01 00:41:35;;;;;;;31.92;13.75;;;;;;;;;;5127686;27;20083;-66
2021/12/01 00:44:01;;;;;;;34.95;13.73;;;;;;;;;;5128713;27;20150;-67
2021/12/01 00:46:42;;;;;;;35.53;14.82;;;;;;;;;;5129415;27;20537;-66
2021/12/01 00:49:09;;;;;;;27.60;12.07;;;;;;;;;;5132324;27;20086;-67
2021/12/01 00:51:35;;;;;;;36.50;14.55;;;;;;;;;;5130359;27;20056;-67
2021/12/01 00:54:02;;;;;;;35.10;14.75;;;;;;;;;;5131676;27;20173;-66
2021/12/01 00:56:28;;;;;;;32.00;14.30;;;;;;;;;;5131151;27;20147;-67
2021/12/01 00:58:55;;;;;;;27.95;12.77;;;;;;;;;;5131345;27;20146;-67
2021/12/01 01:01:21;;;;;;;34.08;13.82;;;;;;;;;;5131175;27;20138;-67
2021/12/01 01:03:49;;;;;;;33.00;14.18;;;;;;;;;;5130612;27;20051;-67
2021/12/01 01:06:15;;;;;;;23.13;12.27;;;;;;;;;;5131750;27;20502;-67
2021/12/01 01:08:42;;;;;;;32.45;13.48;;;;;;;;;;5131165;27;20154;-67
2021/12/01 01:16:22;;;;;;;28.27;12.43;;;;;;;;;;5131630;27;20063;-66
2021/12/01 01:16:41;;;;;;;27.13;10.80;;;;;;;;;;5131133;27;20151;-67
2021/12/01 01:19:08;;;;;;;24.02;9.07;;;;;;;;;;5131567;27;20143;-66
2021/12/01 01:21:36;;;;;;;22.67;10.45;;;;;;;;;;5131194;27;20175;-67
2021/12/01 01:24:04;;;;;;;21.13;9.18;;;;;;;;;;5131460;27;20146;-66
2021/12/01 01:26:31;;;;;;;18.87;8.93;;;;;;;;;;5131485;27;20130;-66
2021/12/01 01:28:57;;;;;;;27.33;9.95;;;;;;;;;;5130743;27;20043;-67
2021/12/01 01:31:24;;;;;;;20.08;9.70;;;;;;;;;;5130886;27;20549;-67
2021/12/01 01:33:51;;;;;;;20.40;8.45;;;;;;;;;;5131225;27;20051;-66
2021/12/01 01:36:17;;;;;;;19.92;8.05;;;;;;;;;;5129761;27;20058;-67
2021/12/01 01:38:43;;;;;;;22.30;8.70;;;;;;;;;;5130940;27;20642;-66
2021/12/01 01:41:11;;;;;;;21.55;8.02;;;;;;;;;;5129967;27;20055;-65
2021/12/01 01:43:38;;;;;;;17.35;7.10;;;;;;;;;;5130323;27;20151;-66
2021/12/01 01:46:05;;;;;;;14.85;6.13;;;;;;;;;;5131015;27;20066;-66
2021/12/01 01:48:33;;;;;;;15.98;6.30;;;;;;;;;;5130597;27;20055;-67
2021/12/01 01:51:05;;;;;;;18.55;6.80;;;;;;;;;;5130917;27;20083;-66
2021/12/01 01:53:34;;;;;;;12.73;5.07;;;;;;;;;;5130332;27;20138;-66
2021/12/01 01:56:05;;;;;;;17.17;5.88;;;;;;;;;;5130406;27;20079;-66
2021/12/01 01:58:32;;;;;;;13.90;5.20;;;;;;;;;;5130290;27;20086;-66
2021/12/01 02:01:09;;;;;;;13.30;5.15;;;;;;;;;;5130491;27;20163;-66
2021/12/01 02:03:40;;;;;;;20.48;6.03;;;;;;;;;;5130698;27;20052;-66
2021/12/01 02:06:07;;;;;;;17.48;5.32;;;;;;;;;;5128935;27;20154;-67
2021/12/01 02:08:35;;;;;;;13.25;5.43;;;;;;;;;;5131016;27;20440;-67
2021/12/01 02:11:03;;;;;;;15.10;5.82;;;;;;;;;;5130686;27;20052;-67
2021/12/01 02:13:30;;;;;;;16.33;6.22;;;;;;;;;;5130427;27;20052;-66
2021/12/01 02:15:57;;;;;;;12.68;5.53;;;;;;;;;;5130039;27;20134;-66
2021/12/01 02:18:24;;;;;;;13.55;5.78;;;;;;;;;;5129949;27;20166;-66
2021/12/01 02:21:11;;;;;;;15.13;6.13;;;;;;;;;;5130482;27;20138;-66
2021/12/01 02:23:39;;;;;;;15.18;7.00;;;;;;;;;;5129273;27;20055;-66
2021/12/01 02:26:06;;;;;;;15.02;5.85;;;;;;;;;;5129894;27;20062;-66
2021/12/01 02:28:33;;;;;;;24.15;7.80;;;;;;;;;;5130644;27;20086;-67
2021/12/01 02:31:00;;;;;;;16.83;6.38;;;;;;;;;;5129803;27;20146;-67
2021/12/01 02:33:26;;;;;;;22.02;7.15;;;;;;;;;;5130499;27;20134;-67
2021/12/01 02:35:53;;;;;;;17.30;6.80;;;;;;;;;;5130037;27;20101;-66
2021/12/01 02:38:19;;;;;;;17.73;7.30;;;;;;;;;;5129146;27;20183;-66
2021/12/01 02:40:46;;;;;;;14.07;6.38;;;;;;;;;;5130011;27;20498;-66
2021/12/01 02:43:12;;;;;;;17.17;6.78;;;;;;;;;;5129585;27;20164;-67
2021/12/01 02:45:40;;;;;;;25.23;7.80;;;;;;;;;;5128939;27;20051;-67
2021/12/01 02:48:07;;;;;;;19.23;6.38;;;;;;;;;;5129548;27;20579;-66
2021/12/01 02:50:33;;;;;;;15.07;5.55;;;;;;;;;;5129841;27;20051;-65
2021/12/01 02:53:00;;;;;;;13.18;5.68;;;;;;;;;;5129745;27;20576;-66
2021/12/01 02:55:28;;;;;;;12.95;5.40;;;;;;;;;;5129584;27;20051;-66
2021/12/01 02:57:54;;;;;;;11.98;5.43;;;;;;;;;;5111572;27;20150;-66
2021/12/01 03:00:22;;;;;;;13.55;4.72;;;;;;;;;;5129150;27;20105;-66
2021/12/01 03:02:50;;;;;;;15.13;5.47;;;;;;;;;;5129932;27;20054;-66
2021/12/01 03:05:17;;;;;;;12.48;5.72;;;;;;;;;;5129132;27;20047;-66
2021/12/01 03:07:44;;;;;;;13.23;6.18;;;;;;;;;;5129054;27;20139;-67
2021/12/01 03:10:11;;;;;;;13.60;5.75;;;;;;;;;;5129302;27;20142;-67
2021/12/01 03:12:39;;;;;;;14.70;6.55;;;;;;;;;;5129383;27;20109;-66
2021/12/01 03:15:06;;;;;;;17.08;6.85;;;;;;;;;;5129365;27;20142;-66
2021/12/01 03:17:33;;;;;;;14.90;7.18;;;;;;;;;;5129796;27;20068;-66
2021/12/01 03:19:59;;;;;;;16.80;6.93;;;;;;;;;;5127906;27;20051;-66
2021/12/01 03:22:26;;;;;;;15.43;7.10;;;;;;;;;;5129330;27;20097;-67
2021/12/01 03:24:54;;;;;;;15.82;7.18;;;;;;;;;;5128837;27;20058;-66
2021/12/01 03:27:20;;;;;;;18.83;7.75;;;;;;;;;;5128522;27;20054;-66
2021/12/01 03:29:48;;;;;;;19.55;8.00;;;;;;;;;;5129291;27;20520;-66
2021/12/01 03:32:14;;;;;;;17.15;7.35;;;;;;;;;;5129351;27;20066;-67
2021/12/01 03:34:41;;;;;;;14.15;6.80;;;;;;;;;;5128495;27;20052;-66
2021/12/01 03:37:08;;;;;;;17.00;8.00;;;;;;;;;;5129074;27;20501;-66
2021/12/01 03:39:35;;;;;;;13.82;7.28;;;;;;;;;;5129949;27;20135;-65
2021/12/01 03:42:01;;;;;;;13.05;6.45;;;;;;;;;;5128812;27;20497;-66
2021/12/01 03:44:27;;;;;;;13.07;7.05;;;;;;;;;;5128248;27;20170;-66
2021/12/01 03:46:54;;;;;;;13.55;7.50;;;;;;;;;;5128991;27;20047;-66
2021/12/01 03:49:20;;;;;;;9.80;5.35;;;;;;;;;;5128429;27;20076;-67
2021/12/01 03:51:46;;;;;;;10.65;6.45;;;;;;;;;;5129514;27;20055;-66
2021/12/01 03:54:13;;;;;;;16.73;8.02;;;;;;;;;;5129368;27;20048;-66
2021/12/01 03:56:39;;;;;;;13.15;6.18;;;;;;;;;;5129257;27;20564;-66
2021/12/01 03:59:06;;;;;;;15.55;7.50;;;;;;;;;;5129057;27;20075;-66
2021/12/01 04:01:33;;;;;;;19.42;7.93;;;;;;;;;;5128309;27;20048;-66
2021/12/01 04:03:59;;;;;;;14.63;6.07;;;;;;;;;;5128781;27;20102;-67
2021/12/01 04:06:26;;;;;;;11.98;6.10;;;;;;;;;;5128669;27;20597;-66
2021/12/01 04:08:53;;;;;;;11.23;6.22;;;;;;;;;;5128253;27;20622;-67
2021/12/01 04:11:21;;;;;;;11.98;5.53;;;;;;;;;;5128922;27;20444;-67
2021/12/01 04:13:47;;;;;;;10.82;5.15;;;;;;;;;;5128489;27;20130;-67
2021/12/01 04:16:14;;;;;;;11.98;6.32;;;;;;;;;;5128478;27;20135;-67
2021/12/01 04:18:42;;;;;;;10.18;5.78;;;;;;;;;;5128649;27;20091;-67
2021/12/01 04:21:08;;;;;;;14.65;6.95;;;;;;;;;;5131920;27;20046;-68
2021/12/01 04:23:34;;;;;;;14.07;6.40;;;;;;;;;;5132643;27;20056;-67
2021/12/01 04:26:01;;;;;;;12.60;6.50;;;;;;;;;;5132762;27;20134;-66
2021/12/01 04:28:28;;;;;;;12.48;6.32;;;;;;;;;;5132189;27;20073;-67
2021/12/01 04:30:55;;;;;;;12.57;6.80;;;;;;;;;;5131595;27;20062;-67
2021/12/01 04:33:21;;;;;;;12.73;6.82;;;;;;;;;;5131532;27;20130;-66
2021/12/01 04:35:49;;;;;;;17.13;6.68;;;;;;;;;;5132013;27;20407;-67
2021/12/01 04:38:16;;;;;;;15.27;6.00;;;;;;;;;;5132092;27;20051;-67
2021/12/01 04:40:42;;;;;;;15.82;7.03;;;;;;;;;;5132058;27;20062;-67
2021/12/01 04:43:09;;;;;;;12.45;6.60;;;;;;;;;;5132673;27;20545;-67
2021/12/01 04:45:41;;;;;;;14.00;6.32;;;;;;;;;;5131308;27;20067;-68
2021/12/01 04:48:07;;;;;;;14.27;6.00;;;;;;;;;;5131571;27;20051;-67
2021/12/01 04:50:33;;;;;;;16.85;7.13;;;;;;;;;;5132014;27;20048;-68
2021/12/01 04:53:00;;;;;;;15.05;6.53;;;;;;;;;;5131352;27;20056;-67
2021/12/01 04:55:26;;;;;;;11.45;6.20;;;;;;;;;;5131635;27;20052;-67
2021/12/01 04:57:53;;;;;;;13.13;6.65;;;;;;;;;;5131113;27;20062;-67
2021/12/01 05:00:21;;;;;;;14.60;7.78;;;;;;;;;;5131405;27;20101;-67
2021/12/01 05:02:47;;;;;;;15.85;8.15;;;;;;;;;;5131114;27;20083;-67
2021/12/01 05:05:14;;;;;;;13.52;9.07;;;;;;;;;;5131449;27;20055;-65
2021/12/01 05:07:40;;;;;;;16.10;9.93;;;;;;;;;;5131894;27;20051;-64
2021/12/01 05:10:07;;;;;;;18.35;10.43;;;;;;;;;;5130771;27;20510;-66
2021/12/01 05:12:34;;;;;;;18.58;11.20;;;;;;;;;;5132048;27;20071;-67
2021/12/01 05:15:00;;;;;;;22.20;11.70;;;;;;;;;;5131771;27;20094;-68
2021/12/01 05:17:27;;;;;;;15.75;10.02;;;;;;;;;;5130208;27;20563;-67
2021/12/01 05:19:53;;;;;;;26.70;12.68;;;;;;;;;;5131242;27;20059;-67
2021/12/01 05:22:19;;;;;;;23.38;11.40;;;;;;;;;;5130563;27;20531;-66
2021/12/01 05:24:46;;;;;;;17.92;10.05;;;;;;;;;;5130681;27;20153;-67
2021/12/01 05:27:12;;;;;;;10.90;7.18;;;;;;;;;;5131475;27;20464;-67
2021/12/01 05:29:38;;;;;;;14.40;8.88;;;;;;;;;;5131509;27;20087;-67
2021/12/01 05:32:05;;;;;;;17.00;9.73;;;;;;;;;;5129490;27;20055;-66
2021/12/01 05:34:31;;;;;;;19.63;10.23;;;;;;;;;;5131406;27;20083;-67
2021/12/01 05:37:00;;;;;;;17.55;10.10;;;;;;;;;;5131192;27;20066;-66
2021/12/01 05:39:26;;;;;;;;;;;;;;;;;;5110267;28;20055;-67
2021/12/01 05:41:53;;;;;;;14.90;8.30;;;;;;;;;;5109813;28;44453;-67
2021/12/01 05:44:19;;;;;;;18.98;9.98;;;;;;;;;;5110478;28;20063;-66
2021/12/01 05:46:45;;;;;;;23.05;9.85;;;;;;;;;;5109014;28;20498;-66
2021/12/01 05:49:12;;;;;;;13.95;8.18;;;;;;;;;;5110468;28;20056;-66
2021/12/01 05:51:38;;;;;;;22.17;11.73;;;;;;;;;;5110037;28;20472;-66
2021/12/01 05:54:04;;;;;;;24.30;12.13;;;;;;;;;;5110140;28;20494;-67
2021/12/01 05:56:31;;;;;;;20.00;10.88;;;;;;;;;;5110000;28;20158;-67
2021/12/01 05:58:57;;;;;;;19.42;10.13;;;;;;;;;;5109445;28;20488;-67
2021/12/01 06:01:23;;;;;;;15.10;8.60;;;;;;;;;;5109424;28;20080;-66
2021/12/01 06:03:50;;;;;;;20.70;10.50;;;;;;;;;;5110564;28;20656;-66
2021/12/01 06:06:16;;;;;;;19.15;10.70;;;;;;;;;;5109940;28;20052;-68
2021/12/01 06:08:42;;;;;;;21.35;10.13;;;;;;;;;;5109774;28;20429;-66
2021/12/01 06:11:09;;;;;;;15.02;8.77;;;;;;;;;;5109369;28;20109;-67
2021/12/01 06:13:36;;;;;;;16.65;9.07;;;;;;;;;;5110127;28;20052;-66
2021/12/01 06:16:03;;;;;;;16.55;8.25;;;;;;;;;;5109403;28;20052;-69
2021/12/01 06:18:30;;;;;;;14.45;7.32;;;;;;;;;;5109386;28;20059;-67
2021/12/01 06:20:57;;;;;;;24.48;9.65;;;;;;;;;;5109294;28;20054;-65
2021/12/01 06:23:23;;;;;;;16.67;8.85;;;;;;;;;;5109521;28;20062;-66
2021/12/01 06:25:50;;;;;;;20.10;8.60;;;;;;;;;;5109314;28;20068;-66
2021/12/01 06:28:16;;;;;;;15.73;7.45;;;;;;;;;;5109474;28;20083;-66
2021/12/01 06:30:43;;;;;;;14.25;7.50;;;;;;;;;;5110173;28;20123;-67
2021/12/01 06:33:10;;;;;;;15.02;7.03;;;;;;;;;;5109345;28;20048;-67
2021/12/01 06:35:37;;;;;;;11.80;6.03;;;;;;;;;;5108570;28;20056;-68
2021/12/01 06:38:04;;;;;;;12.25;5.82;;;;;;;;;;5118459;27;20055;-67
2021/12/01 06:40:30;;;;;;;11.65;5.60;;;;;;;;;;5129179;27;20047;-67
2021/12/01 06:42:57;;;;;;;17.23;6.80;;;;;;;;;;5128109;27;20056;-67
2021/12/01 06:45:23;;;;;;;13.73;6.40;;;;;;;;;;5130435;27;20052;-68
2021/12/01 06:47:50;;;;;;;13.52;6.63;;;;;;;;;;5130373;27;20138;-68
2021/12/01 06:50:17;;;;;;;13.10;6.05;;;;;;;;;;5110982;27;20052;-67
2021/12/01 06:52:43;;;;;;;15.45;7.63;;;;;;;;;;5130457;27;20143;-68
2021/12/01 06:55:09;;;;;;;17.08;7.88;;;;;;;;;;5129221;27;20051;-67
2021/12/01 06:57:36;;;;;;;15.30;7.63;;;;;;;;;;5128203;27;20936;-67
2021/12/01 07:00:04;;;;;;;18.05;8.23;;;;;;;;;;5128695;27;20054;-66
2021/12/01 07:02:30;;;;;;;14.95;6.90;;;;;;;;;;5130041;27;20048;-67
2021/12/01 07:04:57;;;;;;;14.82;7.38;;;;;;;;;;5129241;27;20096;-67
2021/12/01 07:07:23;;;;;;;17.80;8.02;;;;;;;;;;5111069;27;20058;-67
2021/12/01 07:09:51;;;;;;;14.77;6.10;;;;;;;;;;5128789;27;20524;-66
2021/12/01 07:12:17;;;;;;;15.05;6.50;;;;;;;;;;5129522;27;20138;-67
2021/12/01 07:14:44;;;;;;;14.52;6.40;;;;;;;;;;5130131;27;20188;-66
2021/12/01 07:17:10;;;;;;;16.77;8.00;;;;;;;;;;5128926;27;20052;-67
2021/12/01 07:19:37;;;;;;;13.93;6.88;;;;;;;;;;5128955;27;20056;-67
2021/12/01 07:22:03;;;;;;;18.25;8.20;;;;;;;;;;5129658;27;20058;-66
2021/12/01 07:24:29;;;;;;;17.98;8.25;;;;;;;;;;5128650;27;20044;-68
2021/12/01 07:26:56;;;;;;;18.00;7.47;;;;;;;;;;5128993;27;20079;-67
2021/12/01 07:29:22;;;;;;;16.73;6.60;;;;;;;;;;5128811;27;20179;-67
2021/12/01 07:31:49;;;;;;;15.45;6.63;;;;;;;;;;5128893;27;20434;-67
2021/12/01 07:34:15;;;;;;;14.45;6.63;;;;;;;;;;5129618;27;20051;-67
2021/12/01 07:36:41;;;;;;;12.77;6.20;;;;;;;;;;5129611;27;20509;-67
2021/12/01 07:39:08;;;;;;;9.90;5.60;;;;;;;;;;5129088;27;20078;-68
2021/12/01 07:41:34;;;;;;;17.02;6.38;;;;;;;;;;5129138;27;20533;-68
2021/12/01 07:44:00;;;;;;;13.63;6.18;;;;;;;;;;5128112;27;20052;-68
2021/12/01 07:46:27;;;;;;;13.65;5.38;;;;;;;;;;5128833;27;20062;-67
2021/12/01 07:48:53;;;;;;;11.40;5.35;;;;;;;;;;5128868;27;20077;-67
2021/12/01 07:51:19;;;;;;;12.27;5.80;;;;;;;;;;5128688;27;20056;-67
2021/12/01 07:53:46;;;;;;;10.43;5.15;;;;;;;;;;5128650;27;20151;-67
2021/12/01 07:56:12;;;;;;;12.15;5.60;;;;;;;;;;5131842;27;20179;-67
2021/12/01 07:58:39;;;;;;;12.60;5.55;;;;;;;;;;5132741;27;20044;-68
2021/12/01 08:01:05;;;;;;;18.75;6.30;;;;;;;;;;5132330;27;20054;-67
2021/12/01 08:03:32;;;;;;;19.90;7.13;;;;;;;;;;5132730;27;20059;-68
2021/12/01 08:05:58;;;;;;;15.18;6.75;;;;;;;;;;5131781;27;20083;-68
2021/12/01 08:08:24;;;;;;;14.73;6.95;;;;;;;;;;5132319;27;20062;-66
2021/12/01 08:10:51;;;;;;;17.08;6.63;;;;;;;;;;5132223;27;20440;-68
2021/12/01 08:13:17;;;;;;;13.02;5.72;;;;;;;;;;5131063;27;20052;-70
2021/12/01 08:15:47;;;;;;;12.10;5.45;;;;;;;;;;5131683;27;20061;-69
2021/12/01 08:18:14;;;;;;;19.10;7.40;;;;;;;;;;5132036;27;20090;-67
2021/12/01 08:20:41;;;;;;;30.23;7.75;;;;;;;;;;5132077;27;20510;-65
2021/12/01 08:23:07;;;;;;;17.67;7.05;;;;;;;;;;5132157;27;20047;-66
2021/12/01 08:25:34;;;;;;;16.33;3.92;;;;;;;;;;5131832;27;20538;-65
2021/12/01 08:28:02;;;;;;;10.45;3.10;;;;;;;;;;5132036;27;20113;-65
2021/12/01 08:30:28;;;;;;;15.18;2.90;;;;;;;;;;5132413;27;20049;-66
2021/12/01 08:32:55;;;;;;;13.32;2.80;;;;;;;;;;5132189;27;20130;-66
2021/12/01 08:35:21;;;;;;;23.20;3.38;;;;;;;;;;5121969;27;20912;-66
2021/12/01 08:37:48;;;;;;;21.90;2.80;;;;;;;;;;5111132;27;20052;-69
2021/12/01 08:40:15;;;;;;;17.40;2.75;;;;;;;;;;5130995;27;20509;-66
2021/12/01 08:42:44;;;;;;;20.58;3.10;;;;;;;;;;5124341;27;20063;-67
2021/12/01 08:45:11;;;;;;;20.10;4.20;;;;;;;;;;5114576;27;20569;-68
2021/12/01 08:47:38;;;;;;;12.95;2.50;;;;;;;;;;5120691;27;20142;-68
2021/12/01 08:50:05;;;;;;;19.13;2.55;;;;;;;;;;5133612;27;20051;-68
2021/12/01 08:52:32;;;;;;;18.77;2.40;;;;;;;;;;5129839;27;20043;-70
2021/12/01 08:54:58;;;;;;;25.90;2.42;;;;;;;;;;5126972;27;20055;-68
2021/12/01 08:57:24;;;;;;;24.23;2.50;;;;;;;;;;5131859;27;20071;-68
2021/12/01 08:59:51;;;;;;;13.88;1.67;;;;;;;;;;5131365;27;20047;-68
2021/12/01 09:02:18;;;;;;;14.52;2.08;;;;;;;;;;5129592;27;20159;-68
2021/12/01 09:04:44;;;;;;;12.70;2.00;;;;;;;;;;5131892;27;20066;-68
2021/12/01 09:07:11;;;;;;;19.30;2.08;;;;;;;;;;5130031;27;20055;-68
2021/12/01 09:09:37;;;;;;;14.30;1.92;;;;;;;;;;5131420;27;20044;-68
2021/12/01 09:12:04;;;;;;;15.60;2.20;;;;;;;;;;5131250;27;20053;-69
2021/12/01 09:14:30;;;;;;;13.50;1.60;;;;;;;;;;5131211;27;20171;-69
2021/12/01 09:16:57;;;;;;;8.82;1.20;;;;;;;;;;5131563;27;20144;-68
2021/12/01 09:19:23;;;;;;;12.25;1.25;;;;;;;;;;5131260;27;20055;-69
2021/12/01 09:21:50;;;;;;;7.03;1.25;;;;;;;;;;5114955;27;20861;-70
2021/12/01 09:24:18;;;;;;;13.68;1.77;;;;;;;;;;5125526;27;20091;-69
2021/12/01 09:26:44;;;;;;;15.18;2.47;;;;;;;;;;5124371;27;20052;-68
2021/12/01 09:29:10;;;;;;;15.20;1.80;;;;;;;;;;5127910;27;20047;-67
2021/12/01 09:31:37;;;;;;;13.40;1.73;;;;;;;;;;5125628;27;20043;-70
2021/12/01 09:34:03;;;;;;;15.63;1.92;;;;;;;;;;5130581;27;20059;-67
2021/12/01 09:36:30;;;;;;;13.80;1.67;;;;;;;;;;5130762;27;20105;-69
2021/12/01 09:38:56;;;;;;;11.57;2.05;;;;;;;;;;5131155;27;20054;-67
2021/12/01 09:41:23;;;;;;;17.33;1.83;;;;;;;;;;5124747;27;20058;-68
2021/12/01 09:43:49;;;;;;;11.45;1.60;;;;;;;;;;5127684;27;20142;-70
2021/12/01 09:46:17;;;;;;;14.07;1.85;;;;;;;;;;5126777;27;20108;-67
2021/12/01 09:48:43;;;;;;;13.00;2.17;;;;;;;;;;5129657;27;20048;-67
2021/12/01 09:51:12;;;;;;;10.82;1.55;;;;;;;;;;5126618;27;20516;-67
2021/12/01 09:53:38;;;;;;;13.02;2.72;;;;;;;;;;5130450;27;20051;-67
2021/12/01 09:56:05;;;;;;;13.90;1.88;;;;;;;;;;5130205;27;20150;-68
2021/12/01 09:58:35;;;;;;;16.83;1.92;;;;;;;;;;5129685;27;20052;-67
2021/12/01 10:01:03;;;;;;;10.70;1.43;;;;;;;;;;5122405;27;20147;-67
2021/12/01 10:03:30;;;;;;;11.15;1.50;;;;;;;;;;5115430;27;20079;-68
2021/12/01 10:06:04;;;;;;;12.43;1.60;;;;;;;;;;5126258;27;20083;-67
2021/12/01 10:08:35;;;;;;;11.70;1.73;;;;;;;;;;5129199;27;20573;-66
2021/12/01 10:11:03;;;;;;;11.93;1.95;;;;;;;;;;5118253;27;20574;-67
2021/12/01 10:13:33;;;;;;;11.60;1.90;;;;;;;;;;5109947;28;20170;-68
2021/12/01 10:16:01;;;;;;;10.25;1.80;;;;;;;;;;5118711;27;20190;-68
2021/12/01 10:18:29;;;;;;;16.88;2.83;;;;;;;;;;5128428;27;20051;-67
2021/12/01 10:21:03;;;;;;;9.00;2.15;;;;;;;;;;5122430;27;20054;-68
2021/12/01 10:23:30;;;;;;;12.30;2.00;;;;;;;;;;5117209;27;20560;-68
2021/12/01 10:26:05;;;;;;;13.07;1.85;;;;;;;;;;5130024;27;20054;-67
2021/12/01 10:28:33;;;;;;;16.50;1.98;;;;;;;;;;5128457;27;20062;-68
2021/12/01 10:31:00;;;;;;;11.30;1.70;;;;;;;;;;5117443;27;20504;-68
2021/12/01 10:33:27;;;;;;;7.55;1.50;;;;;;;;;;5129802;27;20044;-68
2021/12/01 10:35:54;;;;;;;11.75;1.92;;;;;;;;;;5129464;27;20537;-68
2021/12/01 10:38:35;;;;;;;13.93;2.20;;;;;;;;;;5124601;27;20410;-67
2021/12/01 10:41:03;;;;;;;11.73;1.98;;;;;;;;;;5117560;27;20151;-68
2021/12/01 10:43:43;;;;;;;13.73;2.00;;;;;;;;;;5129391;27;20097;-67
2021/12/01 10:46:11;;;;;;;18.02;2.00;;;;;;;;;;5129275;27;20184;-68
2021/12/01 10:48:37;;;;;;;20.58;2.85;;;;;;;;;;5121064;27;20056;-67
2021/12/01 10:51:03;;;;;;;11.18;1.90;;;;;;;;;;5124449;27;20051;-68
2021/12/01 10:53:30;;;;;;;16.83;2.75;;;;;;;;;;5129592;27;20052;-66
2021/12/01 10:55:59;;;;;;;13.20;2.00;;;;;;;;;;5128109;27;20087;-67
2021/12/01 10:58:36;;;;;;;11.15;1.55;;;;;;;;;;5128569;27;20055;-69
2021/12/01 11:01:04;;;;;;;13.32;1.70;;;;;;;;;;5112843;27;20066;-67
2021/12/01 11:03:33;;;;;;;15.65;2.50;;;;;;;;;;5129216;27;20059;-67
2021/12/01 11:06:08;;;;;;;10.30;1.77;;;;;;;;;;5128841;27;20075;-66
2021/12/01 11:08:39;;;;;;;14.18;1.83;;;;;;;;;;5123770;27;20059;-69
2021/12/01 11:11:10;;;;;;;17.23;2.00;;;;;;;;;;5117648;27;20172;-68
2021/12/01 11:13:38;;;;;;;14.25;2.72;;;;;;;;;;5119782;27;20139;-68
2021/12/01 11:16:11;;;;;;;15.90;2.33;;;;;;;;;;5122365;27;20142;-68
2021/12/01 11:18:43;;;;;;;14.10;2.22;;;;;;;;;;5128924;27;20078;-68
2021/12/01 11:21:10;;;;;;;16.02;2.28;;;;;;;;;;5113272;27;20410;-67
2021/12/01 11:23:38;;;;;;;15.70;1.85;;;;;;;;;;5129237;27;20174;-68
2021/12/01 11:26:10;;;;;;;14.70;2.53;;;;;;;;;;5128551;27;20055;-67
2021/12/01 11:28:39;;;;;;;10.48;2.15;;;;;;;;;;5115526;27;20426;-67
2021/12/01 11:31:11;;;;;;;17.92;2.17;;;;;;;;;;5108150;27;20562;-67
2021/12/01 11:33:43;;;;;;;11.38;1.92;;;;;;;;;;5129234;27;20435;-69
2021/12/01 11:36:10;;;;;;;18.40;2.75;;;;;;;;;;5129192;27;20051;-68
2021/12/01 11:38:36;;;;;;;10.07;1.40;;;;;;;;;;5115670;27;20052;-69
2021/12/01 11:41:04;;;;;;;12.10;2.13;;;;;;;;;;5109216;27;20501;-67
2021/12/01 11:43:31;;;;;;;12.60;2.10;;;;;;;;;;5121443;27;20516;-67
2021/12/01 11:45:58;;;;;;;17.88;2.53;;;;;;;;;;5126817;27;20058;-68
2021/12/01 11:48:28;;;;;;;12.57;2.08;;;;;;;;;;5119687;27;20118;-68
2021/12/01 11:51:01;;;;;;;8.63;1.65;;;;;;;;;;5107798;27;20502;-69
2021/12/01 11:53:33;;;;;;;13.27;2.45;;;;;;;;;;5128780;27;20052;-68
2021/12/01 11:56:03;;;;;;;10.02;1.90;;;;;;;;;;5115385;27;20510;-67
2021/12/01 11:58:49;;;;;;;11.55;2.08;;;;;;;;;;5110660;27;20403;-67
2021/12/01 12:01:21;;;;;;;18.45;2.17;;;;;;;;;;5124484;27;20118;-68
2021/12/01 12:03:54;;;;;;;10.30;1.77;;;;;;;;;;5128336;27;20056;-67
2021/12/01 12:06:20;;;;;;;11.77;2.00;;;;;;;;;;5126772;27;20052;-67
2021/12/01 12:08:58;;;;;;;9.80;1.45;;;;;;;;;;5128130;27;20055;-67
2021/12/01 12:11:32;;;;;;;12.20;2.63;;;;;;;;;;5128142;27;20040;-68
2021/12/01 12:14:00;;;;;;;15.20;2.50;;;;;;;;;;5127978;27;20151;-68
2021/12/01 12:16:26;;;;;;;7.17;1.90;;;;;;;;;;5109842;27;20128;-68
2021/12/01 12:18:53;;;;;;;14.95;2.10;;;;;;;;;;5128546;27;20058;-68
2021/12/01 12:21:40;;;;;;;13.40;2.10;;;;;;;;;;5127662;27;20523;-68
2021/12/01 12:24:16;;;;;;;14.13;1.60;;;;;;;;;;5128372;27;20503;-68
2021/12/01 12:26:45;;;;;;;14.80;1.80;;;;;;;;;;5128266;27;20143;-69
2021/12/01 12:29:15;;;;;;;;;;;;;;;;;;5129043;27;20060;-68
2021/12/01 12:31:43;;;;;;;7.13;1.70;;;;;;;;;;5127380;27;43565;-68
2021/12/01 12:34:13;;;;;;;12.55;1.73;;;;;;;;;;5128590;27;20060;-68
2021/12/01 12:36:47;;;;;;;12.98;2.28;;;;;;;;;;5128424;27;20056;-67
2021/12/01 12:39:15;;;;;;;15.95;2.00;;;;;;;;;;5126409;27;20048;-67
2021/12/01 12:42:06;;;;;;;11.98;1.73;;;;;;;;;;5119636;27;20058;-67
2021/12/01 12:44:33;;;;;;;12.43;1.90;;;;;;;;;;5131866;27;20052;-68
2021/12/01 12:47:24;;;;;;;8.38;2.30;;;;;;;;;;5129259;27;20052;-70
2021/12/01 12:49:50;;;;;;;6.22;1.38;;;;;;;;;;5131898;27;20062;-69
2021/12/01 12:52:26;;;;;;;15.45;2.47;;;;;;;;;;5129003;27;20051;-68
2021/12/01 12:54:57;;;;;;;18.58;2.35;;;;;;;;;;5131135;27;20051;-69
2021/12/01 12:57:25;;;;;;;13.90;2.35;;;;;;;;;;5130522;27;20094;-68
2021/12/01 13:00:10;;;;;;;25.48;3.00;;;;;;;;;;5131338;27;20087;-68
2021/12/01 13:02:38;;;;;;;13.63;2.00;;;;;;;;;;5131182;27;20501;-67
2021/12/01 13:05:07;;;;;;;22.10;2.45;;;;;;;;;;5131088;27;20047;-67
2021/12/01 13:07:40;;;;;;;8.63;1.45;;;;;;;;;;5131210;27;20140;-68
2021/12/01 13:10:13;;;;;;;17.23;2.63;;;;;;;;;;5131204;27;20501;-68
2021/12/01 13:12:54;;;;;;;22.88;3.33;;;;;;;;;;5131118;27;20645;-68
2021/12/01 13:15:27;;;;;;;18.45;3.05;;;;;;;;;;5130709;27;20584;-67
2021/12/01 13:17:58;;;;;;;21.30;3.13;;;;;;;;;;5130171;27;20051;-67
2021/12/01 13:20:30;;;;;;;23.92;3.78;;;;;;;;;;5131250;27;20051;-67
2021/12/01 13:23:00;;;;;;;21.33;4.78;;;;;;;;;;5130870;27;20500;-67
2021/12/01 13:25:27;;;;;;;20.33;3.22;;;;;;;;;;5130462;27;20429;-66
2021/12/01 13:27:53;;;;;;;18.83;3.70;;;;;;;;;;5130736;27;20620;-66
2021/12/01 13:30:19;;;;;;;21.77;4.53;;;;;;;;;;5130551;27;20418;-65
2021/12/01 13:33:02;;;;;;;16.42;2.88;;;;;;;;;;5130929;27;20538;-66
2021/12/01 13:35:29;;;;;;;31.52;4.22;;;;;;;;;;5130392;27;20109;-65
2021/12/01 13:37:56;;;;;;;17.35;3.13;;;;;;;;;;5130124;27;20059;-66
2021/12/01 13:40:25;;;;;;;26.77;3.47;;;;;;;;;;5130407;27;20053;-66
2021/12/01 13:42:52;;;;;;;15.63;3.05;;;;;;;;;;5130839;27;20062;-66
2021/12/01 13:45:24;;;;;;;19.00;2.72;;;;;;;;;;5130137;27;20056;-66
2021/12/01 13:47:51;;;;;;;14.23;2.55;;;;;;;;;;5130258;27;20051;-66
2021/12/01 13:50:18;;;;;;;16.67;2.67;;;;;;;;;;5130895;27;20582;-66
2021/12/01 13:52:46;;;;;;;18.73;2.85;;;;;;;;;;5130261;27;20098;-68
2021/12/01 13:55:22;;;;;;;21.33;2.85;;;;;;;;;;5129904;27;20051;-67
2021/12/01 13:57:51;;;;;;;16.10;2.38;;;;;;;;;;5129602;27;20139;-67
2021/12/01 14:00:30;;;;;;;18.27;2.88;;;;;;;;;;5130328;27;20054;-67
2021/12/01 14:02:56;;;;;;;21.08;2.35;;;;;;;;;;5129656;27;20869;-67
2021/12/01 14:05:23;;;;;;;10.82;2.28;;;;;;;;;;5129342;27;20060;-67
2021/12/01 14:07:50;;;;;;;18.60;2.35;;;;;;;;;;5130093;27;20058;-67
2021/12/01 14:10:23;;;;;;;10.65;2.17;;;;;;;;;;5129591;27;20174;-67
2021/12/01 14:12:59;;;;;;;25.00;3.00;;;;;;;;;;5130504;27;20601;-68
2021/12/01 14:15:27;;;;;;;17.92;2.45;;;;;;;;;;5129872;27;20056;-66
2021/12/01 14:17:59;;;;;;;23.55;2.50;;;;;;;;;;5129640;27;20143;-66
2021/12/01 14:20:26;;;;;;;18.88;1.98;;;;;;;;;;5129826;27;20052;-66
2021/12/01 14:22:53;;;;;;;19.15;2.15;;;;;;;;;;5129754;27;20130;-66
2021/12/01 14:25:22;;;;;;;14.30;2.00;;;;;;;;;;5129448;27;20095;-66
2021/12/01 14:27:50;;;;;;;17.35;2.03;;;;;;;;;;5129376;27;20077;-66
2021/12/01 14:30:17;;;;;;;10.70;1.80;;;;;;;;;;5129584;27;20082;-66
2021/12/01 14:32:46;;;;;;;19.92;2.17;;;;;;;;;;5130022;27;20630;-66
2021/12/01 14:35:12;;;;;;;;;;;;;;;;;;5130053;27;20119;-66
2021/12/01 14:37:39;;;;;;;16.80;1.90;;;;;;;;;;5128740;27;46130;-66